sensor_id;sensor_type;location;lat;lon;timestamp;pressure;altitude;pressure_sealevel;temperature;humidity
28289;BME280;15558;50.874;6.964;2022-12-07T00:01:26;101367.75;;;9.61;75.45
28289;BME280;15558;50.874;6.964;2022-12-07T00:03:53;101368.03;;;9.59;75.29
28289;BME280;15558;50.874;6.964;2022-12-07T00:06:19;101364.66;;;9.57;75.52
28289;BME280;15558;50.874;6.964;2022-12-07T00:08:46;101364.38;;;9.59;75.45
28289;BME280;15558;50.874;6.964;2022-12-07T00:11:15;101363.81;;;9.57;75.19
28289;BME280;15558;50.874;6.964;2022-12-07T00:13:42;101364.69;;;9.62;75.07
28289;BME280;15558;50.874;6.964;2022-12-07T00:16:09;101360.75;;;9.63;74.74
28289;BME280;15558;50.874;6.964;2022-12-07T00:18:35;101360.47;;;9.60;75.45
28289;BME280;15558;50.874;6.964;2022-12-07T00:21:01;101360.75;;;9.58;75.63
28289;BME280;15558;50.874;6.964;2022-12-07T00:23:27;101356.28;;;9.62;75.47
28289;BME280;15558;50.874;6.964;2022-12-07T00:25:53;101362.75;;;9.73;75.09
28289;BME280;15558;50.874;6.964;2022-12-07T00:28:19;101348.16;;;9.71;75.21
28289;BME280;15558;50.874;6.964;2022-12-07T00:30:45;101348.41;;;9.59;75.01
28289;BME280;15558;50.874;6.964;2022-12-07T00:33:10;101338.88;;;9.70;75.30
28289;BME280;15558;50.874;6.964;2022-12-07T00:35:36;101340.84;;;9.70;75.45
28289;BME280;15558;50.874;6.964;2022-12-07T00:38:02;101339.47;;;9.67;74.92
28289;BME280;15558;50.874;6.964;2022-12-07T00:40:27;101346.19;;;9.71;75.32
28289;BME280;15558;50.874;6.964;2022-12-07T00:42:53;101342.00;;;9.69;75.29
28289;BME280;15558;50.874;6.964;2022-12-07T00:45:19;101342.81;;;9.64;75.03
28289;BME280;15558;50.874;6.964;2022-12-07T00:47:44;101336.66;;;9.62;75.42
28289;BME280;15558;50.874;6.964;2022-12-07T00:50:10;101340.00;;;9.74;74.88
28289;BME280;15558;50.874;6.964;2022-12-07T00:52:36;101335.78;;;9.62;75.49
28289;BME280;15558;50.874;6.964;2022-12-07T00:55:02;101343.09;;;9.63;75.15
28289;BME280;15558;50.874;6.964;2022-12-07T00:57:27;101331.31;;;9.61;75.21
28289;BME280;15558;50.874;6.964;2022-12-07T00:59:53;101344.22;;;9.67;74.75
28289;BME280;15558;50.874;6.964;2022-12-07T01:02:23;101335.25;;;9.65;75.60
28289;BME280;15558;50.874;6.964;2022-12-07T01:04:48;101334.69;;;9.63;74.99
28289;BME280;15558;50.874;6.964;2022-12-07T01:07:14;101334.41;;;9.69;75.68
28289;BME280;15558;50.874;6.964;2022-12-07T01:09:40;101340.00;;;9.74;74.72
28289;BME280;15558;50.874;6.964;2022-12-07T01:12:06;101330.78;;;9.69;75.12
28289;BME280;15558;50.874;6.964;2022-12-07T01:14:31;101335.50;;;9.68;75.12
28289;BME280;15558;50.874;6.964;2022-12-07T01:16:57;101336.66;;;9.62;75.42
28289;BME280;15558;50.874;6.964;2022-12-07T01:19:23;101341.13;;;9.68;75.85
28289;BME280;15558;50.874;6.964;2022-12-07T01:21:48;101340.03;;;9.69;75.10
28289;BME280;15558;50.874;6.964;2022-12-07T01:24:14;101340.03;;;9.64;74.73
28289;BME280;15558;50.874;6.964;2022-12-07T01:26:40;101350.94;;;9.76;74.83
28289;BME280;15558;50.874;6.964;2022-12-07T01:29:06;101343.38;;;9.76;74.78
28289;BME280;15558;50.874;6.964;2022-12-07T01:31:32;101350.69;;;9.77;74.59
28289;BME280;15558;50.874;6.964;2022-12-07T01:33:59;101349.00;;;9.86;74.59
28289;BME280;15558;50.874;6.964;2022-12-07T01:36:29;101340.88;;;9.79;75.09
28289;BME280;15558;50.874;6.964;2022-12-07T01:38:56;101334.13;;;9.85;74.72
28289;BME280;15558;50.874;6.964;2022-12-07T01:41:23;101335.53;;;9.78;74.98
28289;BME280;15558;50.874;6.964;2022-12-07T01:46:33;101343.38;;;9.76;75.05
28289;BME280;15558;50.874;6.964;2022-12-07T01:48:59;101338.03;;;9.70;74.95
28289;BME280;15558;50.874;6.964;2022-12-07T01:51:25;101328.53;;;9.76;74.70
28289;BME280;15558;50.874;6.964;2022-12-07T01:53:51;101345.06;;;9.82;74.85
28289;BME280;15558;50.874;6.964;2022-12-07T01:56:19;101333.88;;;9.87;74.58
28289;BME280;15558;50.874;6.964;2022-12-07T01:58:46;101335.84;;;9.77;75.27
28289;BME280;15558;50.874;6.964;2022-12-07T02:01:12;101327.69;;;9.80;75.29
28289;BME280;15558;50.874;6.964;2022-12-07T02:03:39;101329.38;;;9.81;74.15
28289;BME280;15558;50.874;6.964;2022-12-07T02:06:05;101314.78;;;9.74;75.02
28289;BME280;15558;50.874;6.964;2022-12-07T02:08:32;101321.53;;;9.83;74.52
28289;BME280;15558;50.874;6.964;2022-12-07T02:10:58;101322.91;;;9.80;74.37
28289;BME280;15558;50.874;6.964;2022-12-07T02:13:25;101323.47;;;9.78;75.17
28289;BME280;15558;50.874;6.964;2022-12-07T02:23:59;101312.81;;;9.79;74.80
28289;BME280;15558;50.874;6.964;2022-12-07T02:29:22;101319.28;;;9.75;74.95
28289;BME280;15558;50.874;6.964;2022-12-07T02:31:54;101315.06;;;9.78;74.49
28289;BME280;15558;50.874;6.964;2022-12-07T02:34:25;101319.53;;;9.78;74.66
28289;BME280;15558;50.874;6.964;2022-12-07T02:36:55;101313.41;;;9.77;74.95
28289;BME280;15558;50.874;6.964;2022-12-07T02:39:25;101314.81;;;9.79;75.04
28289;BME280;15558;50.874;6.964;2022-12-07T02:41:58;101312.28;;;9.78;75.42
28289;BME280;15558;50.874;6.964;2022-12-07T02:44:26;101310.84;;;9.80;74.53
28289;BME280;15558;50.874;6.964;2022-12-07T02:46:54;101306.94;;;9.81;74.86
28289;BME280;15558;50.874;6.964;2022-12-07T02:49:24;101321.25;;;9.79;75.36
28289;BME280;15558;50.874;6.964;2022-12-07T02:51:51;101306.38;;;9.74;75.51
28289;BME280;15558;50.874;6.964;2022-12-07T02:54:18;101310.03;;;9.79;75.11
28289;BME280;15558;50.874;6.964;2022-12-07T03:12:18;101315.63;;;9.70;74.48
28289;BME280;15558;50.874;6.964;2022-12-07T03:14:47;101315.34;;;9.76;75.04
28289;BME280;15558;50.874;6.964;2022-12-07T03:17:17;101316.75;;;9.78;74.78
28289;BME280;15558;50.874;6.964;2022-12-07T03:19:45;101306.94;;;9.81;74.60
28289;BME280;15558;50.874;6.964;2022-12-07T03:22:12;101305.28;;;9.75;75.13
28289;BME280;15558;50.874;6.964;2022-12-07T03:24:44;101309.75;;;9.71;75.27
28289;BME280;15558;50.874;6.964;2022-12-07T03:43:46;101308.06;;;9.80;74.74
28289;BME280;15558;50.874;6.964;2022-12-07T03:49:27;101306.97;;;9.66;75.31
28289;BME280;15558;50.874;6.964;2022-12-07T03:51:56;101309.19;;;9.64;74.89
28289;BME280;15558;50.874;6.964;2022-12-07T03:54:24;101313.13;;;9.73;74.63
28289;BME280;15558;50.874;6.964;2022-12-07T03:56:52;101303.84;;;9.78;74.63
28289;BME280;15558;50.874;6.964;2022-12-07T03:59:19;101311.44;;;9.67;74.45
28289;BME280;15558;50.874;6.964;2022-12-07T05:16:55;101311.38;;;9.33;75.36
28289;BME280;15558;50.874;6.964;2022-12-07T05:19:21;101309.72;;;9.32;75.35
28289;BME280;15558;50.874;6.964;2022-12-07T05:21:47;101295.16;;;9.35;74.97
28289;BME280;15558;50.874;6.964;2022-12-07T05:24:13;101301.63;;;9.35;74.83
28289;BME280;15558;50.874;6.964;2022-12-07T05:26:40;101304.38;;;9.30;75.28
28289;BME280;15558;50.874;6.964;2022-12-07T05:29:05;101304.41;;;9.40;74.18
28289;BME280;15558;50.874;6.964;2022-12-07T05:31:31;101309.44;;;9.33;74.96
28289;BME280;15558;50.874;6.964;2022-12-07T05:33:57;101309.16;;;9.30;75.09
28289;BME280;15558;50.874;6.964;2022-12-07T05:36:23;101308.88;;;9.31;74.57
28289;BME280;15558;50.874;6.964;2022-12-07T05:38:49;101312.53;;;9.32;74.75
28289;BME280;15558;50.874;6.964;2022-12-07T05:41:16;101301.31;;;9.32;74.88
28289;BME280;15558;50.874;6.964;2022-12-07T05:44:01;101310.84;;;9.36;74.21
28289;BME280;15558;50.874;6.964;2022-12-07T05:46:26;101316.16;;;9.32;74.92
28289;BME280;15558;50.874;6.964;2022-12-07T05:48:52;101305.78;;;9.28;74.85
28289;BME280;15558;50.874;6.964;2022-12-07T05:51:18;101300.47;;;9.31;75.05
28289;BME280;15558;50.874;6.964;2022-12-07T05:53:44;101303.00;;;9.28;74.41
28289;BME280;15558;50.874;6.964;2022-12-07T05:56:10;101310.28;;;9.34;74.63
28289;BME280;15558;50.874;6.964;2022-12-07T05:58:36;101307.47;;;9.29;74.86
28289;BME280;15558;50.874;6.964;2022-12-07T06:01:20;101304.69;;;9.34;75.19
28289;BME280;15558;50.874;6.964;2022-12-07T06:03:46;101304.13;;;9.32;75.07
28289;BME280;15558;50.874;6.964;2022-12-07T06:06:12;101305.53;;;9.44;75.07
28289;BME280;15558;50.874;6.964;2022-12-07T06:08:37;101288.47;;;9.45;74.20
28289;BME280;15558;50.874;6.964;2022-12-07T06:11:03;101293.78;;;9.42;74.67
28289;BME280;15558;50.874;6.964;2022-12-07T06:13:47;101287.31;;;9.37;75.05
28289;BME280;15558;50.874;6.964;2022-12-07T06:16:13;101301.31;;;9.37;74.81
28289;BME280;15558;50.874;6.964;2022-12-07T06:18:39;101300.19;;;9.33;75.31
28289;BME280;15558;50.874;6.964;2022-12-07T06:21:04;101290.38;;;9.30;74.76
28289;BME280;15558;50.874;6.964;2022-12-07T06:23:30;101298.22;;;9.23;75.19
28289;BME280;15558;50.874;6.964;2022-12-07T06:25:56;101301.28;;;9.22;74.43
28289;BME280;15558;50.874;6.964;2022-12-07T06:28:22;101305.75;;;9.18;75.00
28289;BME280;15558;50.874;6.964;2022-12-07T06:30:47;101307.44;;;9.14;74.63
28289;BME280;15558;50.874;6.964;2022-12-07T06:33:21;101309.09;;;9.10;74.60
28289;BME280;15558;50.874;6.964;2022-12-07T06:35:47;101300.13;;;9.08;75.01
28289;BME280;15558;50.874;6.964;2022-12-07T06:38:13;101302.38;;;9.06;74.81
28289;BME280;15558;50.874;6.964;2022-12-07T06:40:39;101310.81;;;9.11;74.32
28289;BME280;15558;50.874;6.964;2022-12-07T06:43:04;101313.56;;;9.06;73.99
28289;BME280;15558;50.874;6.964;2022-12-07T06:45:30;101304.63;;;9.09;74.03
28289;BME280;15558;50.874;6.964;2022-12-07T06:47:56;101310.22;;;9.09;74.54
28289;BME280;15558;50.874;6.964;2022-12-07T06:50:22;101311.91;;;9.10;74.60
28289;BME280;15558;50.874;6.964;2022-12-07T06:52:47;101311.91;;;9.10;74.62
28289;BME280;15558;50.874;6.964;2022-12-07T06:55:13;101314.69;;;9.10;74.28
28289;BME280;15558;50.874;6.964;2022-12-07T06:57:39;101312.47;;;9.12;74.82
28289;BME280;15558;50.874;6.964;2022-12-07T07:00:05;101304.06;;;9.07;75.20
28289;BME280;15558;50.874;6.964;2022-12-07T07:02:30;101305.19;;;9.11;74.74
28289;BME280;15558;50.874;6.964;2022-12-07T07:04:56;101304.38;;;9.10;75.29
28289;BME280;15558;50.874;6.964;2022-12-07T07:07:22;101304.38;;;9.10;74.96
28289;BME280;15558;50.874;6.964;2022-12-07T07:09:48;101311.63;;;9.11;74.63
28289;BME280;15558;50.874;6.964;2022-12-07T07:12:17;101312.47;;;9.07;74.72
28289;BME280;15558;50.874;6.964;2022-12-07T07:14:43;101318.63;;;9.09;75.22
28289;BME280;15558;50.874;6.964;2022-12-07T07:17:09;101329.56;;;9.10;74.89
28289;BME280;15558;50.874;6.964;2022-12-07T07:19:34;101325.94;;;9.15;75.06
28289;BME280;15558;50.874;6.964;2022-12-07T07:22:03;101326.50;;;9.17;74.57
28289;BME280;15558;50.874;6.964;2022-12-07T07:24:29;101332.63;;;9.14;75.32
28289;BME280;15558;50.874;6.964;2022-12-07T07:26:55;101329.00;;;9.13;75.27
28289;BME280;15558;50.874;6.964;2022-12-07T07:29:20;101334.59;;;9.18;74.98
28289;BME280;15558;50.874;6.964;2022-12-07T07:31:46;101327.59;;;9.16;75.50
28289;BME280;15558;50.874;6.964;2022-12-07T07:34:12;101324.22;;;9.14;75.38
28289;BME280;15558;50.874;6.964;2022-12-07T07:36:37;101322.00;;;9.16;74.95
28289;BME280;15558;50.874;6.964;2022-12-07T07:39:03;101317.56;;;9.25;75.21
28289;BME280;15558;50.874;6.964;2022-12-07T07:41:29;101323.44;;;9.23;75.35
28289;BME280;15558;50.874;6.964;2022-12-07T07:43:55;101318.09;;;9.22;74.63
28289;BME280;15558;50.874;6.964;2022-12-07T07:46:20;101319.50;;;9.24;74.47
28289;BME280;15558;50.874;6.964;2022-12-07T07:48:46;101325.94;;;9.20;75.25
28289;BME280;15558;50.874;6.964;2022-12-07T07:51:12;101326.50;;;9.17;75.66
28289;BME280;15558;50.874;6.964;2022-12-07T07:53:38;101327.59;;;9.11;74.91
28289;BME280;15558;50.874;6.964;2022-12-07T07:56:03;101329.28;;;9.12;74.90
28289;BME280;15558;50.874;6.964;2022-12-07T07:58:29;101329.84;;;9.14;75.29
28289;BME280;15558;50.874;6.964;2022-12-07T08:00:55;101330.97;;;9.13;75.36
28289;BME280;15558;50.874;6.964;2022-12-07T08:03:21;101331.22;;;9.11;74.86
28289;BME280;15558;50.874;6.964;2022-12-07T08:05:46;101334.88;;;9.12;75.30
28289;BME280;15558;50.874;6.964;2022-12-07T08:08:12;101329.84;;;9.14;74.52
28289;BME280;15558;50.874;6.964;2022-12-07T08:10:38;101334.59;;;9.18;75.28
28289;BME280;15558;50.874;6.964;2022-12-07T08:13:04;101333.81;;;9.28;75.56
28289;BME280;15558;50.874;6.964;2022-12-07T08:15:36;101328.47;;;9.26;75.56
28289;BME280;15558;50.874;6.964;2022-12-07T08:18:02;101334.09;;;9.31;75.23
28289;BME280;15558;50.874;6.964;2022-12-07T08:20:32;101339.69;;;9.41;75.71
28289;BME280;15558;50.874;6.964;2022-12-07T08:22:58;101333.28;;;9.45;75.36
28289;BME280;15558;50.874;6.964;2022-12-07T08:25:24;101333.53;;;9.49;75.34
28289;BME280;15558;50.874;6.964;2022-12-07T08:27:50;101336.09;;;9.50;74.69
28289;BME280;15558;50.874;6.964;2022-12-07T08:30:16;101328.22;;;9.43;75.05
28289;BME280;15558;50.874;6.964;2022-12-07T08:32:43;101337.75;;;9.46;75.26
28289;BME280;15558;50.874;6.964;2022-12-07T08:35:09;101342.78;;;9.44;74.98
28289;BME280;15558;50.874;6.964;2022-12-07T08:37:35;101337.47;;;9.43;75.26
28289;BME280;15558;50.874;6.964;2022-12-07T08:40:01;101337.75;;;9.42;75.06
28289;BME280;15558;50.874;6.964;2022-12-07T08:42:27;101336.91;;;9.46;75.37
28289;BME280;15558;50.874;6.964;2022-12-07T08:44:55;101336.34;;;9.44;75.85
28289;BME280;15558;50.874;6.964;2022-12-07T08:47:22;101343.38;;;9.56;74.83
28289;BME280;15558;50.874;6.964;2022-12-07T08:49:49;101333.00;;;9.67;74.90
28289;BME280;15558;50.874;6.964;2022-12-07T08:52:16;101332.44;;;9.65;75.18
28289;BME280;15558;50.874;6.964;2022-12-07T08:54:42;101331.31;;;9.80;75.06
28289;BME280;15558;50.874;6.964;2022-12-07T08:57:09;101338.34;;;9.93;74.68
28289;BME280;15558;50.874;6.964;2022-12-07T08:59:35;101326.59;;;9.96;73.78
28289;BME280;15558;50.874;6.964;2022-12-07T09:02:01;101327.97;;;10.18;73.11
28289;BME280;15558;50.874;6.964;2022-12-07T09:04:27;101327.13;;;10.22;73.83
28289;BME280;15558;50.874;6.964;2022-12-07T09:06:53;101333.25;;;10.34;73.40
28289;BME280;15558;50.874;6.964;2022-12-07T09:09:19;101331.59;;;10.28;72.84
28289;BME280;15558;50.874;6.964;2022-12-07T09:11:45;101332.97;;;10.36;72.78
28289;BME280;15558;50.874;6.964;2022-12-07T09:14:11;101327.63;;;10.34;72.89
28289;BME280;15558;50.874;6.964;2022-12-07T09:16:38;101333.00;;;10.26;73.02
28289;BME280;15558;50.874;6.964;2022-12-07T09:19:03;101326.84;;;10.29;72.45
28289;BME280;15558;50.874;6.964;2022-12-07T09:21:29;101342.53;;;10.35;72.12
28289;BME280;15558;50.874;6.964;2022-12-07T09:23:55;101334.84;;;10.65;72.43
28289;BME280;15558;50.874;6.964;2022-12-07T09:26:21;101336.31;;;11.15;72.38
28289;BME280;15558;50.874;6.964;2022-12-07T09:28:46;101335.69;;;11.76;70.28
28289;BME280;15558;50.874;6.964;2022-12-07T09:31:12;101332.56;;;11.77;69.34
28289;BME280;15558;50.874;6.964;2022-12-07T09:33:38;101335.00;;;11.89;68.15
28289;BME280;15558;50.874;6.964;2022-12-07T09:36:04;101333.56;;;11.91;67.67
28289;BME280;15558;50.874;6.964;2022-12-07T09:38:30;101343.63;;;11.64;68.30
28289;BME280;15558;50.874;6.964;2022-12-07T09:40:56;101341.75;;;11.55;68.52
28289;BME280;15558;50.874;6.964;2022-12-07T09:43:23;101344.69;;;11.30;68.92
28289;BME280;15558;50.874;6.964;2022-12-07T09:45:51;101335.28;;;11.01;69.90
28289;BME280;15558;50.874;6.964;2022-12-07T09:48:29;101335.31;;;10.91;70.80
28289;BME280;15558;50.874;6.964;2022-12-07T09:50:57;101338.41;;;10.90;70.05
28289;BME280;15558;50.874;6.964;2022-12-07T09:53:27;101338.47;;;10.75;70.20
28289;BME280;15558;50.874;6.964;2022-12-07T09:55:54;101332.84;;;10.75;70.48
28289;BME280;15558;50.874;6.964;2022-12-07T09:58:21;101332.03;;;10.75;71.05
28289;BME280;15558;50.874;6.964;2022-12-07T10:00:47;101332.06;;;10.60;71.92
28289;BME280;15558;50.874;6.964;2022-12-07T10:03:13;101337.13;;;10.58;71.21
28289;BME280;15558;50.874;6.964;2022-12-07T10:05:43;101332.06;;;10.60;71.31
28289;BME280;15558;50.874;6.964;2022-12-07T10:08:11;101325.06;;;10.57;71.79
28289;BME280;15558;50.874;6.964;2022-12-07T10:10:37;101327.56;;;10.64;72.21
28289;BME280;15558;50.874;6.964;2022-12-07T10:13:05;101324.75;;;10.69;72.03
28289;BME280;15558;50.874;6.964;2022-12-07T10:20:47;101313.53;;;10.64;71.74
28289;BME280;15558;50.874;6.964;2022-12-07T10:23:14;101304.53;;;10.72;71.15
28289;BME280;15558;50.874;6.964;2022-12-07T10:25:40;101309.56;;;10.75;71.80
28289;BME280;15558;50.874;6.964;2022-12-07T10:30:45;101294.38;;;10.76;71.14
28289;BME280;15558;50.874;6.964;2022-12-07T10:35:56;101298.38;;;10.70;70.99
28289;BME280;15558;50.874;6.964;2022-12-07T10:38:22;101298.34;;;10.75;71.03
28289;BME280;15558;50.874;6.964;2022-12-07T10:40:50;101287.13;;;10.65;70.69
28289;BME280;15558;50.874;6.964;2022-12-07T10:43:30;101291.31;;;10.72;70.83
28289;BME280;15558;50.874;6.964;2022-12-07T10:48:29;101296.63;;;10.79;70.33
28289;BME280;15558;50.874;6.964;2022-12-07T10:51:03;101286.31;;;10.64;71.20
28289;BME280;15558;50.874;6.964;2022-12-07T10:58:35;101287.16;;;10.55;71.09
28289;BME280;15558;50.874;6.964;2022-12-07T11:01:13;101278.19;;;10.58;71.19
28289;BME280;15558;50.874;6.964;2022-12-07T11:06:30;101273.03;;;10.80;70.99
28289;BME280;15558;50.874;6.964;2022-12-07T11:14:33;101260.63;;;10.85;69.95
28289;BME280;15558;50.874;6.964;2022-12-07T11:19:42;101256.19;;;10.80;69.98
28289;BME280;15558;50.874;6.964;2022-12-07T11:25:35;101236.78;;;10.83;70.20
28289;BME280;15558;50.874;6.964;2022-12-07T11:41:09;101212.25;;;10.98;69.52
28289;BME280;15558;50.874;6.964;2022-12-07T11:43:50;101222.94;;;11.01;69.64
28289;BME280;15558;50.874;6.964;2022-12-07T11:46:18;101211.97;;;11.00;69.81
28289;BME280;15558;50.874;6.964;2022-12-07T11:51:28;101223.84;;;10.87;70.14
28289;BME280;15558;50.874;6.964;2022-12-07T11:53:58;101219.88;;;10.93;70.17
28289;BME280;15558;50.874;6.964;2022-12-07T11:56:27;101215.94;;;10.99;69.48
28289;BME280;15558;50.874;6.964;2022-12-07T12:06:46;101218.00;;;11.21;68.53
28289;BME280;15558;50.874;6.964;2022-12-07T12:09:16;101208.50;;;11.13;68.91
28289;BME280;15558;50.874;6.964;2022-12-07T12:17:23;101215.56;;;11.10;67.40
28289;BME280;15558;50.874;6.964;2022-12-07T12:22:19;101204.94;;;11.02;68.62
28289;BME280;15558;50.874;6.964;2022-12-07T12:24:48;101204.38;;;11.05;68.39
28289;BME280;15558;50.874;6.964;2022-12-07T12:27:29;101202.16;;;10.97;68.35
28289;BME280;15558;50.874;6.964;2022-12-07T12:30:00;101206.69;;;10.93;68.02
28289;BME280;15558;50.874;6.964;2022-12-07T12:32:36;101199.41;;;10.92;68.62
28289;BME280;15558;50.874;6.964;2022-12-07T12:37:48;101196.84;;;11.29;69.48
28289;BME280;15558;50.874;6.964;2022-12-07T12:42:55;101192.22;;;11.48;68.24
28289;BME280;15558;50.874;6.964;2022-12-07T12:45:22;101190.25;;;11.48;68.20
28289;BME280;15558;50.874;6.964;2022-12-07T12:50:48;101188.34;;;11.39;67.61
28289;BME280;15558;50.874;6.964;2022-12-07T12:53:15;101192.34;;;11.33;66.59
28289;BME280;15558;50.874;6.964;2022-12-07T13:00:44;101188.06;;;11.07;67.12
28289;BME280;15558;50.874;6.964;2022-12-07T13:06:30;101184.16;;;10.98;66.77
28289;BME280;15558;50.874;6.964;2022-12-07T13:08:58;101180.81;;;10.96;67.57
28289;BME280;15558;50.874;6.964;2022-12-07T13:11:28;101189.56;;;10.90;68.47
28289;BME280;15558;50.874;6.964;2022-12-07T13:14:35;101178.31;;;10.90;68.55
28289;BME280;15558;50.874;6.964;2022-12-07T13:16:41;101180.84;;;10.91;68.08
28289;BME280;15558;50.874;6.964;2022-12-07T13:21:54;101174.97;;;10.88;68.70
28289;BME280;15558;50.874;6.964;2022-12-07T13:24:20;101173.59;;;10.85;69.38
28289;BME280;15558;50.874;6.964;2022-12-07T13:26:46;101171.31;;;10.92;68.70
28289;BME280;15558;50.874;6.964;2022-12-07T13:29:18;101163.19;;;10.86;67.89
28289;BME280;15558;50.874;6.964;2022-12-07T13:31:46;101166.81;;;10.91;68.17
28289;BME280;15558;50.874;6.964;2022-12-07T13:36:57;101159.28;;;10.87;68.26
28289;BME280;15558;50.874;6.964;2022-12-07T13:39:24;101155.63;;;10.86;68.59
28289;BME280;15558;50.874;6.964;2022-12-07T13:41:54;101154.78;;;10.86;68.22
28289;BME280;15558;50.874;6.964;2022-12-07T13:44:20;101143.84;;;10.85;68.53
28289;BME280;15558;50.874;6.964;2022-12-07T13:47:12;101153.72;;;10.77;68.45
28289;BME280;15558;50.874;6.964;2022-12-07T13:49:52;101150.00;;;10.86;67.58
28289;BME280;15558;50.874;6.964;2022-12-07T13:52:43;101149.47;;;10.80;68.43
28289;BME280;15558;50.874;6.964;2022-12-07T13:55:11;101150.91;;;10.77;68.40
28289;BME280;15558;50.874;6.964;2022-12-07T13:57:39;101144.97;;;10.84;67.84
28289;BME280;15558;50.874;6.964;2022-12-07T14:00:06;101136.03;;;10.77;68.09
28289;BME280;15558;50.874;6.964;2022-12-07T14:02:53;101129.28;;;10.78;68.07
28289;BME280;15558;50.874;6.964;2022-12-07T14:05:24;101138.25;;;10.80;69.08
28289;BME280;15558;50.874;6.964;2022-12-07T14:07:54;101137.38;;;10.84;67.44
28289;BME280;15558;50.874;6.964;2022-12-07T14:10:37;101131.75;;;10.84;67.55
28289;BME280;15558;50.874;6.964;2022-12-07T14:13:51;101125.38;;;10.74;67.32
28289;BME280;15558;50.874;6.964;2022-12-07T14:15:50;101127.69;;;10.67;68.50
28289;BME280;15558;50.874;6.964;2022-12-07T14:23:38;101121.22;;;10.66;67.73
28289;BME280;15558;50.874;6.964;2022-12-07T14:26:06;101124.91;;;10.62;68.80
28289;BME280;15558;50.874;6.964;2022-12-07T14:28:34;101121.28;;;10.56;69.48
28289;BME280;15558;50.874;6.964;2022-12-07T14:31:00;101119.31;;;10.57;69.34
28289;BME280;15558;50.874;6.964;2022-12-07T14:33:29;101122.72;;;10.54;69.57
28289;BME280;15558;50.874;6.964;2022-12-07T14:35:55;101117.69;;;10.51;69.91
28289;BME280;15558;50.874;6.964;2022-12-07T14:38:23;101112.38;;;10.50;69.90
28289;BME280;15558;50.874;6.964;2022-12-07T14:40:50;101114.06;;;10.46;69.97
28289;BME280;15558;50.874;6.964;2022-12-07T14:43:16;101112.66;;;10.48;70.12
28289;BME280;15558;50.874;6.964;2022-12-07T14:45:44;101103.34;;;10.52;69.86
28289;BME280;15558;50.874;6.964;2022-12-07T14:48:13;101093.50;;;10.55;69.83
28289;BME280;15558;50.874;6.964;2022-12-07T14:50:48;101090.81;;;10.40;70.73
28289;BME280;15558;50.874;6.964;2022-12-07T14:53:16;101089.38;;;10.48;70.38
28289;BME280;15558;50.874;6.964;2022-12-07T14:55:42;101094.72;;;10.44;70.56
28289;BME280;15558;50.874;6.964;2022-12-07T14:58:12;101094.16;;;10.47;71.00
28289;BME280;15558;50.874;6.964;2022-12-07T15:00:39;101081.72;;;10.58;69.75
28289;BME280;15558;50.874;6.964;2022-12-07T15:03:04;101090.53;;;10.42;70.30
28289;BME280;15558;50.874;6.964;2022-12-07T15:05:30;101084.91;;;10.42;70.41
28289;BME280;15558;50.874;6.964;2022-12-07T15:07:56;101090.19;;;10.48;69.54
28289;BME280;15558;50.874;6.964;2022-12-07T15:10:26;101082.16;;;10.37;70.50
28289;BME280;15558;50.874;6.964;2022-12-07T15:12:58;101082.66;;;10.44;70.08
28289;BME280;15558;50.874;6.964;2022-12-07T15:15:43;101078.41;;;10.51;69.74
28289;BME280;15558;50.874;6.964;2022-12-07T15:18:09;101077.88;;;10.44;70.63
28289;BME280;15558;50.874;6.964;2022-12-07T15:20:35;101082.97;;;10.37;71.02
28289;BME280;15558;50.874;6.964;2022-12-07T15:23:01;101084.09;;;10.41;71.10
28289;BME280;15558;50.874;6.964;2022-12-07T15:25:26;101082.09;;;10.42;71.15
28289;BME280;15558;50.874;6.964;2022-12-07T15:30:20;101089.41;;;10.38;72.08
28289;BME280;15558;50.874;6.964;2022-12-07T15:32:52;101089.69;;;10.41;71.59
28289;BME280;15558;50.874;6.964;2022-12-07T15:35:18;101083.22;;;10.46;71.00
28289;BME280;15558;50.874;6.964;2022-12-07T15:37:44;101082.44;;;10.35;71.14
28289;BME280;15558;50.874;6.964;2022-12-07T15:40:10;101074.56;;;10.37;70.41
28289;BME280;15558;50.874;6.964;2022-12-07T15:42:36;101076.31;;;10.28;71.09
28289;BME280;15558;50.874;6.964;2022-12-07T15:45:02;101083.53;;;10.34;70.92
28289;BME280;15558;50.874;6.964;2022-12-07T15:47:29;101081.28;;;10.36;70.54
28289;BME280;15558;50.874;6.964;2022-12-07T15:49:55;101075.41;;;10.38;70.93
28289;BME280;15558;50.874;6.964;2022-12-07T15:52:21;101080.28;;;10.22;70.97
28289;BME280;15558;50.874;6.964;2022-12-07T15:54:47;101075.16;;;10.29;70.23
28289;BME280;15558;50.874;6.964;2022-12-07T15:57:13;101078.81;;;10.30;70.52
28289;BME280;15558;50.874;6.964;2022-12-07T15:59:39;101064.00;;;10.24;71.64
28289;BME280;15558;50.874;6.964;2022-12-07T16:02:05;101063.13;;;10.24;71.46
28289;BME280;15558;50.874;6.964;2022-12-07T16:04:30;101071.53;;;10.24;71.58
28289;BME280;15558;50.874;6.964;2022-12-07T16:06:56;101062.78;;;10.35;70.38
28289;BME280;15558;50.874;6.964;2022-12-07T16:09:22;101051.66;;;10.20;70.75
28289;BME280;15558;50.874;6.964;2022-12-07T16:11:48;101059.53;;;10.18;71.02
28289;BME280;15558;50.874;6.964;2022-12-07T16:14:15;101063.44;;;10.17;71.40
28289;BME280;15558;50.874;6.964;2022-12-07T16:16:41;101065.16;;;10.14;71.55
28289;BME280;15558;50.874;6.964;2022-12-07T16:19:07;101063.22;;;10.09;71.30
28289;BME280;15558;50.874;6.964;2022-12-07T16:27:12;101058.16;;;10.11;70.84
28289;BME280;15558;50.874;6.964;2022-12-07T16:32:32;101067.22;;;9.98;70.17
28289;BME280;15558;50.874;6.964;2022-12-07T16:34:58;101070.00;;;9.98;69.24
28289;BME280;15558;50.874;6.964;2022-12-07T16:37:27;101065.28;;;9.94;69.42
28289;BME280;15558;50.874;6.964;2022-12-07T16:39:52;101069.75;;;9.95;70.27
28289;BME280;15558;50.874;6.964;2022-12-07T16:42:18;101059.66;;;9.94;70.40
28289;BME280;15558;50.874;6.964;2022-12-07T16:44:44;101068.06;;;9.89;70.48